Pittsburgh, Pennsylvania
Traffic Map
Current Weather Conditions
Pittsburgh, Pennsylvania
Overcast Haze
Overcast
47°
Feels Like: 41°
Wind Chill: 41° Ceiling: 3200
Heat Index: 47° Visibility: 10mi
Dew Point: 35° Wind: 14mph
Humidity: 63% Direction: 270° (W)
Pressure: 29.62in Gusts: 22mph
Raw Report DataKAGC 251726Z 27012G19KT 10SM BR FEW027 BKN032 OVC042 08/02 A2962 RMK AO2 RAB00E09 P0000 T00830017
Traffic Incident Summary
Active as of:
Severity:
Category:
InformationThere was an issue retrieving the traffic information for this location. Please try a different location or try again shortly.
Advertisements
Track Severe Weather on mobile